Observation data for Roaring Springs on 07/20/2019      Previous  Date       Current Mesonet Observations  Soil Data  Daily Summary Page  Observations in Plain Language
KRRS 200500Z 18011KT 29/14 A2991 RMK A01 T02910143  RH  042%=      5-min Rain = 0
KRRS 200505Z 18011KT 29/14 A2991 RMK A01 T02890143  RH  043%=      5-min Rain = 0
KRRS 200510Z 18011KT 29/14 A2991 RMK A01 T02880143  RH  043%=      5-min Rain = 0
KRRS 200515Z 18011KT 29/14 A2991 RMK A01 T02870144  RH  043%=      5-min Rain = 0
KRRS 200520Z 18012KT 29/14 A2991 RMK A01 T02860144  RH  044%=      5-min Rain = 0
KRRS 200525Z 18011KT 29/14 A2991 RMK A01 T02850144  RH  044%=      5-min Rain = 0
KRRS 200530Z 18011G16KT 28/15 A2992 RMK A01 T02840145  RH  044%=      5-min Rain = 0
KRRS 200535Z 18011KT 28/15 A2991 RMK A01 T02820145  RH  045%=      5-min Rain = 0
KRRS 200540Z 18011G16KT 28/15 A2991 RMK A01 T02800146  RH  046%=      5-min Rain = 0
KRRS 200545Z 18011KT 28/15 A2991 RMK A01 T02790146  RH  046%=      5-min Rain = 0
KRRS 200550Z 18011KT 28/15 A2991 RMK A01 T02780147  RH  047%=      5-min Rain = 0
KRRS 200555Z 18011G16KT 28/15 A2991 RMK A01 T02760147  RH  047%=      5-min Rain = 0
KRRS 200600Z 18011KT 28/15 A2991 RMK A01 T02760147  RH  047%=      5-min Rain = 0
KRRS 200605Z 18011KT 28/15 A2991 RMK A01 T02750147  RH  048%=      5-min Rain = 0
KRRS 200610Z 18010KT 27/15 A2991 RMK A01 T02730148  RH  048%=      5-min Rain = 0
KRRS 200615Z 18010KT 27/15 A2991 RMK A01 T02700149  RH  050%=      5-min Rain = 0
KRRS 200620Z 18010KT 27/15 A2991 RMK A01 T02680149  RH  050%=      5-min Rain = 0
KRRS 200625Z 18010KT 27/15 A2991 RMK A01 T02650150  RH  051%=      5-min Rain = 0
KRRS 200630Z 19010KT 26/15 A2991 RMK A01 T02630150  RH  052%=      5-min Rain = 0
KRRS 200635Z 19011KT 26/15 A2991 RMK A01 T02630150  RH  052%=      5-min Rain = 0
KRRS 200640Z 19011KT 26/15 A2991 RMK A01 T02610150  RH  053%=      5-min Rain = 0
KRRS 200645Z 19011KT 26/15 A2992 RMK A01 T02600150  RH  053%=      5-min Rain = 0
KRRS 200650Z 19010KT 26/15 A2992 RMK A01 T02590150  RH  053%=      5-min Rain = 0
KRRS 200655Z 19010KT 26/15 A2991 RMK A01 T02580151  RH  054%=      5-min Rain = 0
KRRS 200700Z 20010KT 26/15 A2992 RMK A01 T02570150  RH  054%=      5-min Rain = 0
KRRS 200705Z 20010KT 26/15 A2991 RMK A01 T02560150  RH  055%=      5-min Rain = 0
KRRS 200710Z 20010KT 26/15 A2991 RMK A01 T02550150  RH  055%=      5-min Rain = 0
KRRS 200715Z 19011KT 25/15 A2991 RMK A01 T02540151  RH  055%=      5-min Rain = 0
KRRS 200720Z 19012KT 26/15 A2991 RMK A01 T02550150  RH  055%=      5-min Rain = 0
KRRS 200725Z 19012KT 26/15 A2991 RMK A01 T02580150  RH  054%=      5-min Rain = 0
KRRS 200730Z 19012KT 26/15 A2991 RMK A01 T02600150  RH  053%=      5-min Rain = 0
KRRS 200735Z 19012KT 26/15 A2991 RMK A01 T02590150  RH  053%=      5-min Rain = 0
KRRS 200740Z 19012KT 26/15 A2991 RMK A01 T02600150  RH  053%=      5-min Rain = 0
KRRS 200745Z 19011KT 26/15 A2991 RMK A01 T02600150  RH  053%=      5-min Rain = 0
KRRS 200750Z 19011KT 26/15 A2991 RMK A01 T02590150  RH  053%=      5-min Rain = 0
KRRS 200755Z 19010KT 26/15 A2991 RMK A01 T02580151  RH  054%=      5-min Rain = 0
KRRS 200800Z 19010KT 26/15 A2991 RMK A01 T02580151  RH  054%=      5-min Rain = 0
KRRS 200805Z 19010KT 26/15 A2991 RMK A01 T02570151  RH  054%=      5-min Rain = 0
KRRS 200810Z 19010KT 26/15 A2991 RMK A01 T02570151  RH  054%=      5-min Rain = 0
KRRS 200815Z 19010KT 26/15 A2991 RMK A01 T02550151  RH  055%=      5-min Rain = 0
KRRS 200820Z 20010KT 26/15 A2991 RMK A01 T02550150  RH  055%=      5-min Rain = 0
KRRS 200825Z 19010KT 26/15 A2991 RMK A01 T02580150  RH  053%=      5-min Rain = 0
KRRS 200830Z 19011KT 26/15 A2991 RMK A01 T02590150  RH  053%=      5-min Rain = 0
KRRS 200835Z 19011KT 26/15 A2991 RMK A01 T02610149  RH  053%=      5-min Rain = 0
KRRS 200840Z 19010KT 26/15 A2991 RMK A01 T02600150  RH  053%=      5-min Rain = 0
KRRS 200845Z 19010KT 26/15 A2991 RMK A01 T02600150  RH  053%=      5-min Rain = 0
KRRS 200850Z 19010KT 26/15 A2991 RMK A01 T02590151  RH  054%=      5-min Rain = 0
KRRS 200855Z 19010KT 26/15 A2991 RMK A01 T02570151  RH  054%=      5-min Rain = 0
KRRS 200900Z 19010KT 26/15 A2991 RMK A01 T02550152  RH  055%=      5-min Rain = 0
KRRS 200905Z 19010KT 26/15 A2991 RMK A01 T02560152  RH  055%=      5-min Rain = 0
KRRS 200910Z 19010KT 25/15 A2991 RMK A01 T02540152  RH  056%=      5-min Rain = 0
KRRS 200915Z 19011KT 26/15 A2991 RMK A01 T02550153  RH  056%=      5-min Rain = 0
KRRS 200920Z 19010KT 26/15 A2991 RMK A01 T02560153  RH  055%=      5-min Rain = 0
KRRS 200925Z 19010KT 25/15 A2991 RMK A01 T02530154  RH  056%=      5-min Rain = 0
KRRS 200930Z 19010KT 25/15 A2991 RMK A01 T02530154  RH  057%=      5-min Rain = 0
KRRS 200935Z 19010KT 25/16 A2991 RMK A01 T02520155  RH  057%=      5-min Rain = 0
KRRS 200940Z 19010G15KT 25/16 A2991 RMK A01 T02510155  RH  058%=      5-min Rain = 0
KRRS 200945Z 19010KT 25/16 A2991 RMK A01 T02500156  RH  059%=      5-min Rain = 0
KRRS 200950Z 19010KT 25/16 A2991 RMK A01 T02490157  RH  059%=      5-min Rain = 0
KRRS 200955Z 19011KT 25/16 A2991 RMK A01 T02510157  RH  059%=      5-min Rain = 0
KRRS 201000Z 19012KT 25/16 A2991 RMK A01 T02540158  RH  058%=      5-min Rain = 0
KRRS 201005Z 19012KT 25/16 A2991 RMK A01 T02540160  RH  058%=      5-min Rain = 0
KRRS 201010Z 19010KT 25/16 A2991 RMK A01 T02530161  RH  059%=      5-min Rain = 0
KRRS 201015Z 19010KT 25/16 A2991 RMK A01 T02510161  RH  060%=      5-min Rain = 0
KRRS 201020Z 19010KT 25/16 A2991 RMK A01 T02490162  RH  062%=      5-min Rain = 0
KRRS 201025Z 19010G15KT 25/16 A2991 RMK A01 T02480163  RH  062%=      5-min Rain = 0
KRRS 201030Z 19009KT 25/16 A2992 RMK A01 T02490164  RH  062%=      5-min Rain = 0
KRRS 201035Z 20009KT 25/17 A2992 RMK A01 T02470165  RH  063%=      5-min Rain = 0
KRRS 201040Z 20009KT 25/17 A2992 RMK A01 T02450165  RH  064%=      5-min Rain = 0
KRRS 201045Z 19009KT 25/17 A2992 RMK A01 T02450166  RH  064%=      5-min Rain = 0
KRRS 201050Z 19010KT 24/17 A2992 RMK A01 T02440167  RH  065%=      5-min Rain = 0
KRRS 201055Z 19010KT 25/17 A2992 RMK A01 T02450168  RH  065%=      5-min Rain = 0
KRRS 201100Z 19010KT 24/17 A2992 RMK A01 T02430168  RH  066%=      5-min Rain = 0
KRRS 201105Z 19010KT 24/17 A2992 RMK A01 T02420169  RH  067%=      5-min Rain = 0
KRRS 201110Z 19010KT 24/17 A2992 RMK A01 T02410170  RH  068%=      5-min Rain = 0
KRRS 201115Z 19010KT 24/17 A2992 RMK A01 T02410171  RH  068%=      5-min Rain = 0
KRRS 201120Z 19010KT 24/17 A2992 RMK A01 T02400172  RH  069%=      5-min Rain = 0
KRRS 201125Z 19010KT 24/17 A2992 RMK A01 T02410173  RH  069%=      5-min Rain = 0
KRRS 201130Z 20011G16KT 24/17 A2992 RMK A01 T02430174  RH  069%=      5-min Rain = 0
KRRS 201135Z 20011KT 24/18 A2992 RMK A01 T02430176  RH  069%=      5-min Rain = 0
KRRS 201140Z 19011KT 24/18 A2992 RMK A01 T02440177  RH  070%=      5-min Rain = 0
KRRS 201145Z 20010KT 24/18 A2992 RMK A01 T02430178  RH  070%=      5-min Rain = 0
KRRS 201150Z 20010KT 24/18 A2993 RMK A01 T02430179  RH  071%=      5-min Rain = 0
KRRS 201155Z 20010KT 24/18 A2993 RMK A01 T02420180  RH  072%=      5-min Rain = 0
KRRS 201200Z 19011KT 24/18 A2993 RMK A01 T02430182  RH  072%=      5-min Rain = 0
KRRS 201205Z 20010KT 24/18 A2993 RMK A01 T02430183  RH  073%=      5-min Rain = 0
KRRS 201210Z 20011KT 24/18 A2993 RMK A01 T02430184  RH  073%=      5-min Rain = 0
KRRS 201215Z 20010KT 24/19 A2993 RMK A01 T02430185  RH  074%=      5-min Rain = 0
KRRS 201220Z 19010KT 24/19 A2993 RMK A01 T02430186  RH  074%=      5-min Rain = 0
KRRS 201225Z 19009KT 24/19 A2993 RMK A01 T02430187  RH  075%=      5-min Rain = 0
KRRS 201230Z 19010G15KT 24/19 A2993 RMK A01 T02440188  RH  075%=      5-min Rain = 0
KRRS 201235Z 19011KT 25/19 A2993 RMK A01 T02450189  RH  075%=      5-min Rain = 0
KRRS 201240Z 20011KT 25/19 A2993 RMK A01 T02470190  RH  075%=      5-min Rain = 0
KRRS 201245Z 20012KT 25/19 A2993 RMK A01 T02480191  RH  075%=      5-min Rain = 0
KRRS 201250Z 19011KT 25/19 A2993 RMK A01 T02490192  RH  075%=      5-min Rain = 0
KRRS 201255Z 19012KT 25/19 A2993 RMK A01 T02510193  RH  074%=      5-min Rain = 0
KRRS 201300Z 19013G18KT 25/19 A2994 RMK A01 T02520193  RH  074%=      5-min Rain = 0
KRRS 201305Z 19012KT 25/19 A2994 RMK A01 T02530194  RH  074%=      5-min Rain = 0
KRRS 201310Z 19012KT 26/20 A2994 RMK A01 T02550196  RH  074%=      5-min Rain = 0
KRRS 201315Z 19013G19KT 26/20 A2994 RMK A01 T02560196  RH  073%=      5-min Rain = 0
KRRS 201320Z 19013G18KT 26/20 A2994 RMK A01 T02580197  RH  073%=      5-min Rain = 0
KRRS 201325Z 19014G19KT 26/20 A2993 RMK A01 T02590197  RH  073%=      5-min Rain = 0
KRRS 201330Z 20013KT 26/20 A2993 RMK A01 T02600198  RH  073%=      5-min Rain = 0
KRRS 201335Z 20013KT 26/20 A2993 RMK A01 T02620199  RH  072%=      5-min Rain = 0
KRRS 201340Z 20017G24KT 26/20 A2994 RMK A01 T02630197  RH  071%=      5-min Rain = 0
KRRS 201345Z 20014G19KT 26/20 A2994 RMK A01 T02640199  RH  072%=      5-min Rain = 0
KRRS 201350Z 20015G21KT 27/20 A2994 RMK A01 T02660199  RH  071%=      5-min Rain = 0
KRRS 201355Z 20014G22KT 27/20 A2994 RMK A01 T02680200  RH  070%=      5-min Rain = 0
KRRS 201400Z 20015KT 27/20 A2994 RMK A01 T02690200  RH  070%=      5-min Rain = 0
KRRS 201405Z 20015G20KT 27/20 A2994 RMK A01 T02700200  RH  069%=      5-min Rain = 0
KRRS 201410Z 21015G20KT 27/20 A2994 RMK A01 T02720200  RH  069%=      5-min Rain = 0
KRRS 201415Z 20018G24KT 27/20 A2994 RMK A01 T02720198  RH  068%=      5-min Rain = 0
KRRS 201420Z 20016G21KT 27/20 A2994 RMK A01 T02740199  RH  067%=      5-min Rain = 0
KRRS 201425Z 20018G23KT 27/20 A2994 RMK A01 T02740198  RH  067%=      5-min Rain = 0
KRRS 201430Z 20017G22KT 28/20 A2994 RMK A01 T02750198  RH  067%=      5-min Rain = 0
KRRS 201435Z 21017G23KT 28/20 A2994 RMK A01 T02780198  RH  066%=      5-min Rain = 0
KRRS 201440Z 21018G23KT 28/20 A2994 RMK A01 T02780197  RH  065%=      5-min Rain = 0
KRRS 201445Z 20017G24KT 28/20 A2994 RMK A01 T02800198  RH  065%=      5-min Rain = 0
KRRS 201450Z 21017G22KT 28/20 A2994 RMK A01 T02820198  RH  064%=      5-min Rain = 0
KRRS 201455Z 20017KT 28/20 A2994 RMK A01 T02840198  RH  063%=      5-min Rain = 0
KRRS 201500Z 20017G22KT 28/20 A2993 RMK A01 T02840198  RH  063%=      5-min Rain = 0
KRRS 201505Z 20017KT 29/20 A2993 RMK A01 T02850199  RH  063%=      5-min Rain = 0
KRRS 201510Z 20015G21KT 29/20 A2993 RMK A01 T02880200  RH  063%=      5-min Rain = 0
KRRS 201515Z 19017KT 29/20 A2993 RMK A01 T02890199  RH  062%=      5-min Rain = 0
KRRS 201520Z 19017G23KT 29/20 A2993 RMK A01 T02890198  RH  061%=      5-min Rain = 0
KRRS 201525Z 20018KT 29/20 A2993 RMK A01 T02910197  RH  060%=      5-min Rain = 0
KRRS 201530Z 20015KT 29/20 A2993 RMK A01 T02930198  RH  060%=      5-min Rain = 0
KRRS 201535Z 19017G24KT 30/20 A2993 RMK A01 T02960199  RH  059%=      5-min Rain = 0
KRRS 201540Z 20016G22KT 30/20 A2993 RMK A01 T02970200  RH  059%=      5-min Rain = 0
KRRS 201545Z 20017G24KT 30/20 A2993 RMK A01 T02980199  RH  058%=      5-min Rain = 0
KRRS 201550Z 19017KT 30/20 A2993 RMK A01 T03010199  RH  058%=      5-min Rain = 0
KRRS 201555Z 19017G25KT 30/20 A2993 RMK A01 T03010198  RH  057%=      5-min Rain = 0
KRRS 201600Z 19016G23KT 30/20 A2993 RMK A01 T03020199  RH  057%=      5-min Rain = 0
KRRS 201605Z 18015G20KT 31/20 A2993 RMK A01 T03070199  RH  056%=      5-min Rain = 0
KRRS 201610Z 19015G21KT 31/20 A2993 RMK A01 T03080199  RH  055%=      5-min Rain = 0
KRRS 201615Z 19013G18KT 31/20 A2993 RMK A01 T03100199  RH  055%=      5-min Rain = 0
KRRS 201620Z 18015G20KT 31/20 A2993 RMK A01 T03100197  RH  054%=      5-min Rain = 0
KRRS 201625Z 20014G19KT 31/20 A2993 RMK A01 T03120198  RH  054%=      5-min Rain = 0
KRRS 201630Z 19013KT 31/20 A2993 RMK A01 T03120199  RH  054%=      5-min Rain = 0
KRRS 201635Z 20013G18KT 32/20 A2993 RMK A01 T03180199  RH  053%=      5-min Rain = 0
KRRS 201640Z 18013G21KT 32/20 A2993 RMK A01 T03190197  RH  052%=      5-min Rain = 0
KRRS 201645Z 18015G20KT 32/19 A2993 RMK A01 T03160194  RH  051%=      5-min Rain = 0
KRRS 201650Z 19014G19KT 32/20 A2993 RMK A01 T03170195  RH  051%=      5-min Rain = 0
KRRS 201655Z 18016KT 32/19 A2993 RMK A01 T03190194  RH  050%=      5-min Rain = 0
KRRS 201700Z 19015KT 32/19 A2993 RMK A01 T03210194  RH  050%=      5-min Rain = 0
KRRS 201705Z 18014G19KT 32/19 A2993 RMK A01 T03220193  RH  049%=      5-min Rain = 0
KRRS 201710Z 20014G19KT 32/19 A2993 RMK A01 T03230193  RH  049%=      5-min Rain = 0
KRRS 201715Z 18013G19KT 32/19 A2993 RMK A01 T03240194  RH  049%=      5-min Rain = 0
KRRS 201720Z 19013KT 33/19 A2993 RMK A01 T03280193  RH  048%=      5-min Rain = 0
KRRS 201725Z 18011G18KT 33/20 A2992 RMK A01 T03300195  RH  048%=      5-min Rain = 0
KRRS 201730Z 17012G17KT 33/19 A2992 RMK A01 T03300194  RH  047%=      5-min Rain = 0
KRRS 201735Z 16012G18KT 33/19 A2992 RMK A01 T03310193  RH  047%=      5-min Rain = 0
KRRS 201740Z 18012G17KT 33/19 A2992 RMK A01 T03320194  RH  047%=      5-min Rain = 0
KRRS 201745Z 18012G17KT 34/19 A2992 RMK A01 T03350191  RH  045%=      5-min Rain = 0
KRRS 201750Z 18011G16KT 34/19 A2992 RMK A01 T03370192  RH  045%=      5-min Rain = 0
KRRS 201755Z 18011G16KT 34/19 A2992 RMK A01 T03400192  RH  044%=      5-min Rain = 0
KRRS 201800Z 16013G18KT 34/19 A2992 RMK A01 T03400189  RH  043%=      5-min Rain = 0
KRRS 201805Z 16012G18KT 34/19 A2991 RMK A01 T03400190  RH  044%=      5-min Rain = 0
KRRS 201810Z 16012G17KT 34/19 A2991 RMK A01 T03400190  RH  043%=      5-min Rain = 0
KRRS 201815Z 17013G18KT 34/19 A2991 RMK A01 T03430188  RH  042%=      5-min Rain = 0
KRRS 201820Z 19013KT 34/19 A2991 RMK A01 T03440186  RH  042%=      5-min Rain = 0
KRRS 201825Z 17013G18KT 35/18 A2991 RMK A01 T03470181  RH  040%=      5-min Rain = 0
KRRS 201830Z 17012KT 35/18 A2991 RMK A01 T03450181  RH  040%=      5-min Rain = 0
KRRS 201835Z 17012G17KT 35/18 A2991 RMK A01 T03490183  RH  040%=      5-min Rain = 0
KRRS 201840Z 17014G20KT 35/18 A299 RMK A01 T03510177  RH  038%=      5-min Rain = 0
KRRS 201845Z 18013G18KT 35/17 A2991 RMK A01 T03510174  RH  037%=      5-min Rain = 0
KRRS 201850Z 17012G17KT 35/18 A299 RMK A01 T03520180  RH  038%=      5-min Rain = 0
KRRS 201855Z 17013G19KT 36/18 A299 RMK A01 T03560179  RH  037%=      5-min Rain = 0
KRRS 201900Z 18012G17KT 36/17 A299 RMK A01 T03560173  RH  036%=      5-min Rain = 0
KRRS 201905Z 17010KT 36/18 A299 RMK A01 T03600175  RH  035%=      5-min Rain = 0
KRRS 201910Z 18010G16KT 36/18 A299 RMK A01 T03600180  RH  036%=      5-min Rain = 0
KRRS 201915Z 17010KT 36/18 A299 RMK A01 T03630175  RH  035%=      5-min Rain = 0
KRRS 201920Z 16013G18KT 36/17 A299 RMK A01 T03630168  RH  033%=      5-min Rain = 0
KRRS 201925Z 17014KT 36/17 A2989 RMK A01 T03640165  RH  033%=      5-min Rain = 0
KRRS 201930Z 16014G19KT 36/16 A2989 RMK A01 T03620163  RH  032%=      5-min Rain = 0
KRRS 201935Z 17012G17KT 36/16 A2989 RMK A01 T03630164  RH  032%=      5-min Rain = 0
KRRS 201940Z 17011KT 37/16 A2989 RMK A01 T03670164  RH  032%=      5-min Rain = 0
KRRS 201945Z 18013KT 37/17 A2989 RMK A01 T03680167  RH  032%=      5-min Rain = 0
KRRS 201950Z 18011G19KT 37/17 A2988 RMK A01 T03690166  RH  032%=      5-min Rain = 0
KRRS 201955Z 17014G19KT 37/17 A2988 RMK A01 T03690167  RH  032%=      5-min Rain = 0
KRRS 202000Z 18012G19KT 37/16 A2988 RMK A01 T03680163  RH  031%=      5-min Rain = 0
KRRS 202005Z 19013KT 37/16 A2988 RMK A01 T03690162  RH  031%=      5-min Rain = 0
KRRS 202010Z 18012G17KT 37/17 A2988 RMK A01 T03720165  RH  031%=      5-min Rain = 0
KRRS 202015Z 17011G16KT 37/17 A2988 RMK A01 T03710167  RH  032%=      5-min Rain = 0
KRRS 202020Z 18012G17KT 37/17 A2988 RMK A01 T03720165  RH  031%=      5-min Rain = 0
KRRS 202025Z 16013KT 37/17 A2987 RMK A01 T03680166  RH  032%=      5-min Rain = 0
KRRS 202030Z 16013G20KT 37/17 A2987 RMK A01 T03720169  RH  032%=      5-min Rain = 0
KRRS 202035Z 17012G18KT 37/17 A2987 RMK A01 T03740168  RH  031%=      5-min Rain = 0
KRRS 202040Z 18013G18KT 37/16 A2987 RMK A01 T03730163  RH  031%=      5-min Rain = 0
KRRS 202045Z 16012G18KT 37/16 A2987 RMK A01 T03720164  RH  031%=      5-min Rain = 0
KRRS 202050Z 17012G21KT 37/17 A2987 RMK A01 T03740166  RH  031%=      5-min Rain = 0
KRRS 202055Z 16012G17KT 37/16 A2987 RMK A01 T03730164  RH  031%=      5-min Rain = 0
KRRS 202100Z 18014KT 37/16 A2987 RMK A01 T03730164  RH  031%=      5-min Rain = 0
KRRS 202105Z 17013G20KT 37/17 A2987 RMK A01 T03730165  RH  031%=      5-min Rain = 0
KRRS 202110Z 17013KT 37/17 A2986 RMK A01 T03730166  RH  031%=      5-min Rain = 0
KRRS 202115Z 17014G20KT 37/16 A2986 RMK A01 T03730164  RH  031%=      5-min Rain = 0
KRRS 202120Z 16013G18KT 38/17 A2986 RMK A01 T03750169  RH  031%=      5-min Rain = 0
KRRS 202125Z 16014G20KT 38/17 A2986 RMK A01 T03750167  RH  031%=      5-min Rain = 0
KRRS 202130Z 16012G17KT 38/17 A2986 RMK A01 T03750169  RH  031%=      5-min Rain = 0
KRRS 202135Z 17014G19KT 38/17 A2985 RMK A01 T03750165  RH  031%=      5-min Rain = 0
KRRS 202140Z 15014G19KT 37/17 A2985 RMK A01 T03740166  RH  031%=      5-min Rain = 0
KRRS 202145Z 16012G19KT 37/17 A2985 RMK A01 T03740167  RH  031%=      5-min Rain = 0
KRRS 202150Z 16014KT 38/17 A2984 RMK A01 T03760166  RH  031%=      5-min Rain = 0
KRRS 202155Z 17013G18KT 38/17 A2984 RMK A01 T03750165  RH  031%=      5-min Rain = 0
KRRS 202200Z 17013KT 38/17 A2984 RMK A01 T03750165  RH  031%=      5-min Rain = 0
KRRS 202205Z 17015G21KT 38/16 A2984 RMK A01 T03750164  RH  030%=      5-min Rain = 0
KRRS 202210Z 16015G20KT 38/17 A2984 RMK A01 T03750165  RH  031%=      5-min Rain = 0
KRRS 202215Z 17012G19KT 38/17 A2984 RMK A01 T03750165  RH  031%=      5-min Rain = 0
KRRS 202220Z 18014KT 38/16 A2983 RMK A01 T03760163  RH  030%=      5-min Rain = 0
KRRS 202225Z 17015G20KT 38/16 A2983 RMK A01 T03750162  RH  030%=      5-min Rain = 0
KRRS 202230Z 17013G19KT 37/16 A2984 RMK A01 T03740162  RH  030%=      5-min Rain = 0
KRRS 202235Z 16012KT 37/16 A2984 RMK A01 T03740162  RH  030%=      5-min Rain = 0
KRRS 202240Z 16013G19KT 37/17 A2983 RMK A01 T03740165  RH  031%=      5-min Rain = 0
KRRS 202245Z 17011G17KT 38/17 A2984 RMK A01 T03750167  RH  031%=      5-min Rain = 0
KRRS 202250Z 18012G20KT 38/16 A2983 RMK A01 T03770164  RH  030%=      5-min Rain = 0
KRRS 202255Z 17013G19KT 37/16 A2983 RMK A01 T03740163  RH  030%=      5-min Rain = 0
KRRS 202300Z 17013G19KT 37/16 A2983 RMK A01 T03740163  RH  030%=      5-min Rain = 0
KRRS 202305Z 16013KT 37/16 A2983 RMK A01 T03740163  RH  030%=      5-min Rain = 0
KRRS 202310Z 16011G18KT 37/17 A2983 RMK A01 T03730165  RH  031%=      5-min Rain = 0
KRRS 202315Z 17013G18KT 37/17 A2982 RMK A01 T03740165  RH  031%=      5-min Rain = 0
KRRS 202320Z 17013G18KT 37/16 A2982 RMK A01 T03720161  RH  030%=      5-min Rain = 0
KRRS 202325Z 15013KT 37/16 A2982 RMK A01 T03710162  RH  030%=      5-min Rain = 0
KRRS 202330Z 17014KT 37/16 A2982 RMK A01 T03710160  RH  030%=      5-min Rain = 0
KRRS 202335Z 17010G16KT 37/16 A2982 RMK A01 T03700162  RH  031%=      5-min Rain = 0
KRRS 202340Z 16011G17KT 37/16 A2982 RMK A01 T03700162  RH  031%=      5-min Rain = 0
KRRS 202345Z 17012G17KT 37/16 A2982 RMK A01 T03690162  RH  031%=      5-min Rain = 0
KRRS 202350Z 16012KT 37/16 A2982 RMK A01 T03680159  RH  031%=      5-min Rain = 0
KRRS 202355Z 15013KT 37/16 A2982 RMK A01 T03670158  RH  031%=      5-min Rain = 0
KRRS 210000Z 16012G18KT 37/16 A2982 RMK A01 T03670159  RH  031%=      5-min Rain = 0
KRRS 210005Z 16013G18KT 37/16 A2982 RMK A01 T03660158  RH  031%=      5-min Rain = 0
KRRS 210010Z 16012G17KT 37/16 A2982 RMK A01 T03650157  RH  031%=      5-min Rain = 0
KRRS 210015Z 15014KT 36/16 A2982 RMK A01 T03640158  RH  031%=      5-min Rain = 0
KRRS 210020Z 15012KT 36/16 A2982 RMK A01 T03630162  RH  032%=      5-min Rain = 0
KRRS 210025Z 15013KT 36/16 A2982 RMK A01 T03610162  RH  032%=      5-min Rain = 0
KRRS 210030Z 15012KT 36/16 A2982 RMK A01 T03590163  RH  033%=      5-min Rain = 0
KRRS 210035Z 14013G18KT 36/16 A2982 RMK A01 T03570162  RH  033%=      5-min Rain = 0
KRRS 210040Z 15011G17KT 36/16 A2982 RMK A01 T03560164  RH  034%=      5-min Rain = 0
KRRS 210045Z 14011KT 35/17 A2983 RMK A01 T03540166  RH  034%=      5-min Rain = 0
KRRS 210050Z 14012G17KT 35/16 A2982 RMK A01 T03530164  RH  034%=      5-min Rain = 0
KRRS 210055Z 14013G18KT 35/17 A2982 RMK A01 T03500165  RH  035%=      5-min Rain = 0
KRRS 210100Z 14013KT 35/17 A2983 RMK A01 T03490166  RH  035%=      5-min Rain = 0
KRRS 210105Z 14013G18KT 35/17 A2983 RMK A01 T03470167  RH  036%=      5-min Rain = 0
KRRS 210110Z 15014G19KT 35/17 A2983 RMK A01 T03460169  RH  037%=      5-min Rain = 0
KRRS 210115Z 14016KT 34/17 A2983 RMK A01 T03430171  RH  038%=      5-min Rain = 0
KRRS 210120Z 15013G18KT 34/17 A2983 RMK A01 T03400171  RH  039%=      5-min Rain = 0
KRRS 210125Z 15013G18KT 34/17 A2983 RMK A01 T03380172  RH  039%=      5-min Rain = 0
KRRS 210130Z 14011G16KT 34/17 A2984 RMK A01 T03350173  RH  040%=      5-min Rain = 0
KRRS 210135Z 14011G17KT 33/17 A2984 RMK A01 T03320173  RH  041%=      5-min Rain = 0
KRRS 210140Z 14012KT 33/17 A2984 RMK A01 T03310173  RH  041%=      5-min Rain = 0
KRRS 210145Z 15012KT 33/17 A2984 RMK A01 T03290172  RH  041%=      5-min Rain = 0
KRRS 210150Z 14013KT 33/17 A2984 RMK A01 T03280171  RH  041%=      5-min Rain = 0
KRRS 210155Z 14012G17KT 33/17 A2984 RMK A01 T03260169  RH  041%=      5-min Rain = 0
KRRS 210200Z 14011KT 32/17 A2984 RMK A01 T03240169  RH  041%=      5-min Rain = 0
KRRS 210205Z 14011KT 32/17 A2985 RMK A01 T03220168  RH  042%=      5-min Rain = 0
KRRS 210210Z 15011KT 32/17 A2985 RMK A01 T03200167  RH  042%=      5-min Rain = 0
KRRS 210215Z 15011KT 32/17 A2985 RMK A01 T03190166  RH  042%=      5-min Rain = 0
KRRS 210220Z 15011G17KT 32/17 A2985 RMK A01 T03160166  RH  042%=      5-min Rain = 0
KRRS 210225Z 15012KT 32/16 A2985 RMK A01 T03160163  RH  042%=      5-min Rain = 0
KRRS 210230Z 15012G17KT 32/16 A2985 RMK A01 T03150161  RH  041%=      5-min Rain = 0
KRRS 210235Z 15012G19KT 31/16 A2985 RMK A01 T03140158  RH  041%=      5-min Rain = 0
KRRS 210240Z 15011KT 31/16 A2985 RMK A01 T03130156  RH  041%=      5-min Rain = 0
KRRS 210245Z 15011KT 31/15 A2986 RMK A01 T03120154  RH  040%=      5-min Rain = 0
KRRS 210250Z 15011KT 31/15 A2986 RMK A01 T03110153  RH  040%=      5-min Rain = 0
KRRS 210255Z 15011KT 31/15 A2986 RMK A01 T03100152  RH  040%=      5-min Rain = 0
KRRS 210300Z 15011KT 31/15 A2986 RMK A01 T03090151  RH  040%=      5-min Rain = 0
KRRS 210305Z 15010KT 31/15 A2986 RMK A01 T03080151  RH  040%=      5-min Rain = 0
KRRS 210310Z 16011KT 31/15 A2987 RMK A01 T03060150  RH  041%=      5-min Rain = 0
KRRS 210315Z 15011KT 31/15 A2987 RMK A01 T03050150  RH  041%=      5-min Rain = 0
KRRS 210320Z 16010KT 30/15 A2987 RMK A01 T03040149  RH  041%=      5-min Rain = 0
KRRS 210325Z 16010KT 30/15 A2987 RMK A01 T03030149  RH  041%=      5-min Rain = 0
KRRS 210330Z 16010KT 30/15 A2987 RMK A01 T03010149  RH  041%=      5-min Rain = 0
KRRS 210335Z 16009KT 30/15 A2987 RMK A01 T03000149  RH  042%=      5-min Rain = 0
KRRS 210340Z 15010KT 30/15 A2987 RMK A01 T02980148  RH  042%=      5-min Rain = 0
KRRS 210345Z 16010KT 30/15 A2988 RMK A01 T02970148  RH  042%=      5-min Rain = 0
KRRS 210350Z 16011G16KT 30/15 A2988 RMK A01 T02970147  RH  042%=      5-min Rain = 0
KRRS 210355Z 15010KT 30/15 A2988 RMK A01 T02970146  RH  042%=      5-min Rain = 0
KRRS 210400Z 15009KT 29/15 A2988 RMK A01 T02940146  RH  042%=      5-min Rain = 0
KRRS 210405Z 15009KT 29/15 A2988 RMK A01 T02910147  RH  043%=      5-min Rain = 0
KRRS 210410Z 15009KT 29/15 A2989 RMK A01 T02890147  RH  044%=      5-min Rain = 0
KRRS 210415Z 15009KT 29/15 A2989 RMK A01 T02880147  RH  044%=      5-min Rain = 0
KRRS 210420Z 15009KT 29/15 A299 RMK A01 T02860147  RH  044%=      5-min Rain = 0
KRRS 210425Z 15009KT 29/15 A299 RMK A01 T02850147  RH  045%=      5-min Rain = 0
KRRS 210430Z 15009KT 28/15 A299 RMK A01 T02840147  RH  045%=      5-min Rain = 0
KRRS 210435Z 15009KT 28/15 A299 RMK A01 T02830148  RH  046%=      5-min Rain = 0
KRRS 210440Z 16010KT 28/15 A299 RMK A01 T02830148  RH  046%=      5-min Rain = 0
KRRS 210445Z 16009KT 28/15 A299 RMK A01 T02820149  RH  046%=      5-min Rain = 0
KRRS 210450Z 16010KT 28/15 A299 RMK A01 T02810149  RH  047%=      5-min Rain = 0
KRRS 210455Z 16009KT 28/15 A299 RMK A01 T02790150  RH  047%=      5-min Rain = 0

Page generated in 0.0093 seconds.